Latest Weather Observations for Kingaroy

IDQ60801

Issued at 4:02 am EST Sunday 24 September 2017 (issued every 30 minutes, with the page automatically refreshed every 10 minutes)

About weather observations | Map of weather stations | Latest weather observations for QLD | Other Formats
Station Details ID: 040922 Name: KINGAROY AIRPORT Lat: -26.57 Lon: 151.84 Height: 433.67 m
Data from the previous 72 hours. | See also: Recent months at Kingaroy
Date/Time
EST
Temp
°C
App
Temp
°C
Dew
Point
°C
Rel
Hum
%
Delta-T
°C
Wind Press
QNH
hPa
Press
MSL
hPa
Rain since
9am
mm
Dir  Spd
km/h
Gust
km/h
Spd
kts
Gust
kts
24/04:00am 14.0 12.0 8.6 70 2.8 NW 9 11 5 6 1015.1 1014.1 0.0
24/03:30am 14.9 12.6 9.1 68 3.0 NNW 11 11 6 6 1015.0 1014.0 0.0
24/03:00am 16.3 14.2 9.7 65 3.5 N 11 13 6 7 1015.1 1014.1 0.0
24/02:30am 17.1 14.7 10.2 64 3.7 N 13 15 7 8 1015.1 1014.1 0.0
24/02:00am 17.1 14.4 10.2 64 3.7 NNW 15 19 8 10 1015.4 1014.4 0.0
24/01:30am 17.3 14.9 10.2 63 3.8 N 13 17 7 9 1015.6 1014.6 0.0
24/01:00am 17.4 15.1 10.5 64 3.8 N 13 17 7 9 1015.8 1014.8 0.0
24/12:30am 17.5 15.4 11.1 66 3.5 NNW 13 15 7 8 1016.4 1015.4 0.0
24/12:00am 17.9 15.8 11.2 65 3.7 NNW 13 17 7 9 1016.5 1015.5 0.0
 
Date/Time
EST
Temp
°C
App
Temp
°C
Dew
Point
°C
Rel
Hum
%
Delta-T
°C
Wind Press
QNH
hPa
Press
MSL
hPa
Rain since
9am
mm
Dir  Spd
km/h
Gust
km/h
Spd
kts
Gust
kts
23/11:30pm 18.1 16.7 11.0 63 3.9 NNW 9 11 5 6 1016.5 1015.5 0.0
23/11:00pm 18.2 17.7 10.6 61 4.2 NNE 4 9 2 5 1016.5 1015.5 0.0
23/10:30pm 18.7 17.8 10.8 60 4.4 WNW 6 7 3 4 1016.6 1015.6 0.0
23/10:00pm 20.0 19.0 11.0 56 5.0 NNW 7 11 4 6 1016.6 1015.6 0.0
23/09:30pm 22.5 20.6 11.9 51 6.1 N 13 20 7 11 1016.6 1015.6 0.0
23/09:00pm 23.2 20.9 11.6 48 6.6 N 15 22 8 12 1016.7 1015.7 0.0
23/08:30pm 20.6 19.7 9.2 48 6.2 N 4 13 2 7 1016.5 1015.5 0.0
23/08:00pm 20.4 20.0 8.4 46 6.4 CALM 0 0 0 0 1016.2 1015.2 0.0
23/07:30pm 21.6 20.0 7.8 41 7.3 NE 6 7 3 4 1015.7 1014.7 0.0
23/07:00pm 22.9 20.7 6.2 34 8.7 NNE 7 11 4 6 1015.4 1014.4 0.0
23/06:30pm 24.4 22.3 6.6 32 9.4 NNE 7 9 4 5 1015.1 1014.1 0.0
23/06:00pm 26.3 23.3 7.8 31 10.1 N 13 19 7 10 1014.8 1013.8 0.0
23/05:30pm 27.8 24.5 8.1 29 10.9 N 15 22 8 12 1014.6 1013.6 0.0
23/05:00pm 29.0 24.7 7.0 25 12.0 NNW 19 26 10 14 1014.3 1013.2 0.0
23/04:30pm 30.1 25.8 7.9 25 12.4 NNW 20 30 11 16 1013.8 1012.8 0.0
23/04:00pm 30.1 25.2 6.7 23 12.8 NW 22 30 12 16 1013.8 1012.8 0.0
23/03:30pm 30.7 26.1 6.6 22 13.2 NNW 20 33 11 18 1013.8 1012.8 0.0
23/03:00pm 30.5 26.9 8.3 25 12.5 NW 17 30 9 16 1013.8 1012.8 0.0
23/02:30pm 30.7 26.5 8.4 25 12.6 NW 20 28 11 15 1014.2 1013.1 0.0
23/02:00pm 30.5 26.4 8.8 26 12.3 NNW 20 32 11 17 1014.7 1013.7 0.0
23/01:30pm 30.1 26.0 8.5 26 12.1 NNW 20 28 11 15 1015.2 1014.2 0.0
23/01:00pm 29.9 25.2 7.8 25 12.3 NW 22 28 12 15 1015.6 1014.6 0.0
23/12:30pm 29.1 24.0 7.7 26 11.8 NW 24 35 13 19 1016.1 1015.1 0.0
23/12:00pm 28.7 23.9 8.9 29 11.1 NW 24 33 13 18 1016.7 1015.7 0.0
23/11:30am 27.6 23.1 8.5 30 10.6 NW 22 37 12 20 1017.2 1016.2 0.0
23/11:00am 26.6 21.7 8.6 32 10.0 NNW 24 33 13 18 1017.7 1016.7 0.0
23/10:30am 26.6 22.3 9.5 34 9.6 NW 22 32 12 17 1017.9 1016.9 0.0
23/10:00am 24.8 19.5 8.3 35 9.0 NNW 26 35 14 19 1018.2 1017.2 0.0
23/09:30am 23.3 18.8 10.0 43 7.4 NNW 24 30 13 16 1018.5 1017.6 0.0
23/09:00am 22.7 19.0 11.4 49 6.4 NNW 22 32 12 17 1019.1 1018.1 0.0
23/08:30am 21.1 18.9 14.3 65 4.0 NW 19 24 10 13 1019.6 1018.6 0.0
23/08:00am 19.6 17.9 14.6 73 3.0 NNW 17 24 9 13 1019.4 1018.4 0.0
23/07:38am 18.5 16.4 14.8 79 2.2 N 19 24 10 13 1019.1 1018.1 0.0
23/07:30am 18.3 16.7 15.0 81 2.0 N 17 26 9 14 1019.1 1018.1 0.0
23/07:00am 17.2 16.1 15.2 88 1.2 NNW 15 20 8 11 1018.9 1017.9 0.0
23/06:30am 16.5 14.8 14.7 89 1.1 NNW 17 20 9 11 1018.5 1017.6 0.0
23/06:00am 16.5 15.2 14.9 90 0.9 N 15 20 8 11 1018.2 1017.2 0.0
23/05:30am 16.5 15.7 15.2 92 0.8 NNW 13 19 7 10 1018.2 1017.2 0.0
23/05:00am 16.4 16.5 15.4 94 0.6 N 9 13 5 7 1018.0 1017.0 0.0
23/04:30am 15.5 15.8 14.4 93 0.6 N 6 7 3 4 1017.9 1016.9 0.0
23/04:10am 16.2 16.3 15.4 95 0.5 N 9 13 5 7 1017.8 1016.8 0.0
23/04:00am 15.6 15.4 14.8 95 0.5 N 9 17 5 9 1017.7 1016.7 0.0
23/03:30am 14.9 15.0 13.8 93 0.6 N 6 7 3 4 1017.7 1016.7 0.0
23/03:00am 15.2 16.4 13.9 92 0.7 CALM 0 7 0 4 1017.8 1016.8 0.0
23/02:30am 15.7 16.6 13.9 89 1.0 NNE 2 6 1 3 1017.9 1016.9 0.0
23/02:00am 16.1 16.1 14.1 88 1.2 N 7 9 4 5 1018.2 1017.2 0.0
23/01:30am 17.0 16.5 14.8 87 1.3 NNE 11 19 6 10 1018.6 1017.7 0.0
23/01:00am 17.0 16.7 14.5 85 1.5 NNE 9 13 5 7 1018.9 1017.9 0.0
23/12:30am 17.2 16.4 13.9 81 1.9 NNE 11 17 6 9 1019.1 1018.1 0.0
23/12:00am 17.2 16.7 12.5 74 2.7 NE 7 11 4 6 1019.1 1018.1 0.0
 
Date/Time
EST
Temp
°C
App
Temp
°C
Dew
Point
°C
Rel
Hum
%
Delta-T
°C
Wind Press
QNH
hPa
Press
MSL
hPa
Rain since
9am
mm
Dir  Spd
km/h
Gust
km/h
Spd
kts
Gust
kts
22/11:30pm 17.4 16.7 11.9 70 3.1 NE 7 13 4 7 1019.1 1018.1 0.0
22/11:00pm 17.8 16.8 12.3 70 3.1 ENE 9 13 5 7 1019.2 1018.2 0.0
22/10:30pm 18.2 17.2 12.4 69 3.3 E 9 13 5 7 1018.9 1017.9 0.0
22/10:00pm 18.9 17.9 12.4 66 3.7 ENE 9 15 5 8 1018.9 1017.9 0.0
22/09:30pm 20.3 19.8 13.7 66 3.9 NE 9 17 5 9 1018.5 1017.6 0.0
22/09:00pm 21.4 20.5 13.8 62 4.5 NE 11 19 6 10 1018.3 1017.4 0.0
22/08:30pm 22.1 20.4 12.6 55 5.5 NE 13 22 7 12 1018.2 1017.2 0.0
22/08:00pm 23.4 20.2 8.3 38 8.2 NNE 15 24 8 13 1017.9 1016.9 0.0
22/07:30pm 24.0 20.8 8.4 37 8.5 NNE 15 20 8 11 1017.2 1016.2 0.0
22/07:00pm 23.9 20.9 7.9 36 8.6 NNE 13 20 7 11 1016.5 1015.5 0.0
22/06:30pm 23.2 20.8 6.9 35 8.6 NNE 9 13 5 7 1016.2 1015.2 0.0
22/06:00pm 24.3 22.3 7.0 33 9.2 N 7 11 4 6 1016.2 1015.2 0.0
22/05:30pm 24.5 21.6 6.7 32 9.4 NNW 11 15 6 8 1016.0 1015.0 0.0
22/05:00pm 26.5 21.1 6.5 28 10.7 NW 24 32 13 17 1015.8 1014.8 0.0
22/04:30pm 28.4 22.8 7.1 26 11.6 NNW 26 33 14 18 1015.3 1014.3 0.0
22/04:00pm 29.3 23.9 7.8 26 11.9 NW 26 39 14 21 1015.4 1014.4 0.0
22/03:30pm 28.3 23.8 10.0 32 10.5 N 24 35 13 19 1015.4 1014.4 0.0
22/03:00pm 28.6 23.5 9.3 30 10.9 NNW 26 37 14 20 1015.5 1014.5 0.0
22/02:30pm 29.1 25.3 11.2 33 10.5 NNW 22 33 12 18 1015.7 1014.7 0.0
22/02:00pm 28.4 24.3 10.1 32 10.5 N 22 35 12 19 1016.2 1015.2 0.0
22/01:30pm 27.6 23.7 10.8 35 9.7 NNW 22 33 12 18 1016.8 1015.8 0.0
22/01:00pm 27.9 23.4 10.1 33 10.2 N 24 35 13 19 1017.0 1016.0 0.0
22/12:30pm 26.1 22.7 12.5 42 8.0 NNW 22 32 12 17 1017.6 1016.6 0.0
22/12:00pm 26.8 22.3 10.1 35 9.5 NW 24 35 13 19 1018.0 1017.0 0.0
22/11:30am 26.9 23.4 12.2 40 8.7 NNW 22 32 12 17 1018.5 1017.6 0.0
22/11:00am 25.3 22.7 13.2 47 7.2 NNW 19 28 10 15 1019.0 1018.0 0.0
22/10:30am 24.9 22.4 13.5 49 6.8 NNW 19 30 10 16 1019.4 1018.4 0.0
22/10:00am 24.0 20.7 14.1 54 5.9 N 24 33 13 18 1019.8 1018.8 0.0
22/09:30am 22.4 19.3 14.5 61 4.7 N 24 32 13 17 1020.1 1019.1 0.0
22/09:00am 21.4 17.5 14.3 64 4.2 N 28 35 15 19 1020.3 1019.3 0.0
22/08:30am 20.5 17.0 14.6 69 3.5 N 26 41 14 22 1020.4 1019.5 0.0
22/08:00am 19.6 16.7 15.0 75 2.7 N 24 33 13 18 1020.1 1019.1 0.0
22/07:30am 18.5 17.2 15.7 84 1.7 N 17 28 9 15 1020.2 1019.2 0.0
22/07:00am 16.9 16.6 15.4 91 0.9 NW 11 13 6 7 1020.4 1019.5 0.0
22/06:30am 16.5 16.5 15.2 92 0.8 NNW 9 13 5 7 1019.9 1018.9 0.0
22/06:00am 16.1 15.5 14.6 91 0.9 NNE 11 19 6 10 1019.4 1018.4 0.0
22/05:30am 16.2 15.6 14.6 90 0.9 NNE 11 17 6 9 1018.9 1017.9 0.0
22/05:00am 16.5 15.5 14.7 89 1.1 NNE 13 19 7 10 1018.8 1017.8 0.0
22/04:30am 16.4 15.8 14.6 89 1.1 NNE 11 15 6 8 1018.3 1017.4 0.0
22/04:25am 16.4 15.4 14.6 89 1.1 NNE 13 20 7 11 1018.2 1017.2 0.0
22/04:00am 16.6 15.9 15.5 93 0.7 NNE 13 20 7 11 1018.0 1017.0 0.0
22/03:32am 15.5 15.6 14.5 94 0.6 NE 7 13 4 7 1017.9 1016.9 0.0
22/03:30am 15.4 15.4 14.3 93 0.6 NE 7 13 4 7 1017.9 1016.9 0.0
22/03:00am 15.3 16.5 13.8 91 0.9 CALM 0 2 0 1 1017.9 1016.9 0.0
22/02:30am 15.5 15.6 13.9 90 0.9 NNE 6 9 3 5 1018.1 1017.1 0.0
22/02:00am 16.2 16.0 14.7 91 0.9 NNE 9 11 5 6 1018.1 1017.1 0.0
22/01:32am 16.4 16.2 14.6 89 1.1 NNE 9 17 5 9 1018.5 1017.6 0.0
22/01:30am 16.5 16.3 14.7 89 1.1 NNE 9 17 5 9 1018.5 1017.6 0.0
22/01:01am 17.0 17.3 15.0 88 1.2 NE 7 11 4 6 1018.8 1017.8 0.0
22/01:00am 17.0 17.2 14.8 87 1.3 NE 7 13 4 7 1018.8 1017.8 0.0
22/12:30am 17.1 17.4 14.9 87 1.3 ENE 7 11 4 6 1018.9 1017.9 0.0
22/12:00am 17.2 17.5 15.0 87 1.3 NE 7 13 4 7 1019.0 1018.0 0.0
 
Date/Time
EST
Temp
°C
App
Temp
°C
Dew
Point
°C
Rel
Hum
%
Delta-T
°C
Wind Press
QNH
hPa
Press
MSL
hPa
Rain since
9am
mm
Dir  Spd
km/h
Gust
km/h
Spd
kts
Gust
kts
21/11:30pm 17.2 17.4 14.7 85 1.5 ENE 7 13 4 7 1019.0 1018.0 0.0
21/11:00pm 17.6 17.4 14.7 83 1.7 ENE 9 15 5 8 1018.9 1017.9 0.0
21/10:30pm 17.7 17.8 14.4 81 1.9 E 7 11 4 6 1019.0 1018.0 0.0
21/10:00pm 18.1 18.2 14.4 79 2.2 ENE 7 11 4 6 1018.6 1017.7 0.0
21/09:30pm 18.7 18.9 14.6 77 2.4 NE 7 15 4 8 1018.6 1017.7 0.0
21/09:00pm 19.3 18.8 15.0 76 2.6 NE 11 20 6 11 1018.4 1017.5 0.0
21/08:30pm 19.7 18.9 15.1 75 2.8 NE 13 22 7 12 1018.1 1017.1 0.0
21/08:00pm 20.4 19.3 15.4 73 3.0 NE 15 22 8 12 1017.8 1016.8 0.0
21/07:30pm 21.2 19.7 15.3 69 3.6 NE 17 28 9 15 1017.2 1016.2 0.0
21/07:00pm 21.9 19.9 15.0 65 4.2 NE 19 32 10 17 1017.0 1016.0 0.0
21/06:30pm 23.7 22.8 12.7 50 6.4 E 9 20 5 11 1016.6 1015.6 0.0
21/06:00pm 25.3 23.8 9.2 36 8.9 NE 7 13 4 7 1015.6 1014.6 0.0
21/05:30pm 25.9 23.7 9.3 35 9.3 N 11 13 6 7 1015.4 1014.4 0.0
21/05:00pm 26.5 23.6 8.0 31 10.1 NW 13 19 7 10 1015.3 1014.3 0.0
21/04:30pm 27.0 23.4 6.9 28 10.8 NW 15 20 8 11 1015.0 1014.0 0.0
21/04:00pm 27.4 24.4 7.8 29 10.7 NW 13 22 7 12 1014.9 1013.9 0.0
21/03:30pm 28.9 24.8 8.0 27 11.6 NNW 19 24 10 13 1015.0 1014.0 0.0
21/03:00pm 28.3 25.3 9.1 30 10.8 NNW 15 30 8 16 1015.0 1014.0 0.0
21/02:30pm 29.1 26.2 9.8 30 11.0 N 15 32 8 17 1015.3 1014.3 0.0
21/02:00pm 27.8 24.6 10.1 33 10.1 NNW 17 28 9 15 1015.7 1014.7 0.0
21/01:30pm 27.0 23.4 10.7 36 9.4 NNW 20 30 11 16 1016.2 1015.2 0.0
21/01:00pm 27.1 26.1 12.3 39 8.7 W 9 28 5 15 1016.8 1015.8 0.0
21/12:30pm 25.6 23.2 11.4 41 8.2 NNW 15 26 8 14 1017.3 1016.3 0.0
21/12:00pm 26.4 24.6 12.1 41 8.4 NNE 13 28 7 15 1017.8 1016.8 0.0
21/11:30am 25.3 22.3 11.8 43 7.8 NNW 19 30 10 16 1018.4 1017.5 0.0
21/11:00am 24.4 21.9 12.4 47 7.0 N 17 28 9 15 1019.0 1018.0 0.0
21/10:30am 23.2 20.7 12.2 50 6.4 N 17 20 9 11 1019.6 1018.6 0.0
21/10:00am 22.6 19.8 12.5 53 5.8 N 19 30 10 16 1019.9 1018.9 0.0
21/09:30am 22.0 20.3 12.5 54 5.5 N 13 20 7 11 1020.2 1019.2 0.0
21/09:00am 21.6 20.3 13.8 61 4.6 NE 13 20 7 11 1020.4 1019.5 0.0
21/08:30am 20.3 19.4 13.7 66 3.9 NNE 11 17 6 9 1020.5 1019.6 0.0
21/08:00am 19.7 19.4 14.3 71 3.2 NE 9 19 5 10 1020.5 1019.6 0.0
21/07:30am 18.0 17.5 13.7 76 2.5 NE 9 17 5 9 1020.4 1019.5 0.0
21/07:00am 16.9 17.0 14.0 83 1.7 NE 6 11 3 6 1020.2 1019.2 0.0
21/06:30am 16.0 15.9 13.8 87 1.3 NNE 7 11 4 6 1020.0 1019.0 0.0
21/06:00am 15.4 16.2 13.6 89 1.0 N 2 6 1 3 1019.6 1018.6 0.0
21/05:30am 15.1 15.2 13.8 92 0.7 ENE 6 9 3 5 1019.4 1018.4 0.0
21/05:00am 13.5 14.3 12.4 93 0.6 CALM 0 0 0 0 1019.4 1018.4 0.0
21/04:30am 12.3 12.7 11.2 93 0.6 CALM 0 0 0 0 1019.4 1018.4 0.0

Other Formats:

Comma delimited format used in spreadsheet applications
http://www.bom.gov.au/fwo/IDQ60801/IDQ60801.94549.axf

JavaScript Object Notation format (JSON) in row-major order
http://www.bom.gov.au/fwo/IDQ60801/IDQ60801.94549.json